createdAt,value
2023-05-22T17:32:57.924Z,20.85
2023-05-22T17:35:24.922Z,20.94
2023-05-22T17:37:51.432Z,20.88
2023-05-22T17:40:18.260Z,20.93
2023-05-22T17:42:45.225Z,20.95
2023-05-22T17:45:11.856Z,20.95
2023-05-22T17:47:38.474Z,20.97
2023-05-22T17:50:05.211Z,20.96
2023-05-22T17:52:31.710Z,20.91
2023-05-22T17:54:58.313Z,20.90
2023-05-22T17:57:27.604Z,20.88
2023-05-22T17:59:54.571Z,20.90
2023-05-22T18:02:21.279Z,20.89
2023-05-22T18:04:48.605Z,20.90
2023-05-22T18:07:17.167Z,20.87
2023-05-22T18:09:43.689Z,20.83
2023-05-22T18:12:15.287Z,20.88
2023-05-22T18:14:50.889Z,20.86
2023-05-22T18:17:17.494Z,24.61
2023-05-22T18:19:44.093Z,25.54
2023-05-22T18:22:10.750Z,24.19
2023-05-22T18:24:38.294Z,25.62
2023-05-22T18:27:04.914Z,25.99
2023-05-22T18:29:31.593Z,25.92
2023-05-22T18:31:58.423Z,25.79
2023-05-22T18:34:25.238Z,19.80
2023-05-22T18:36:53.102Z,8.72
2023-05-22T18:39:19.844Z,8.46
2023-05-22T18:41:46.582Z,8.41
2023-05-22T18:44:13.337Z,8.42
2023-05-22T18:46:40.043Z,8.56
2023-05-22T18:49:06.757Z,8.40
2023-05-22T18:51:33.736Z,8.45
2023-05-22T18:54:00.437Z,8.35
2023-05-22T18:56:27.534Z,8.38
2023-05-22T18:58:54.219Z,8.33
2023-05-22T19:01:20.946Z,8.19
2023-05-22T19:03:47.624Z,7.99
2023-05-22T19:06:18.933Z,8.28
2023-05-22T19:08:45.893Z,8.21
2023-05-22T19:11:12.586Z,8.02
2023-05-22T19:13:40.798Z,8.09
2023-05-22T19:16:07.802Z,8.11
2023-05-22T19:18:34.611Z,8.13
2023-05-22T19:21:01.398Z,8.18
2023-05-22T19:23:29.644Z,8.23
2023-05-22T19:25:57.214Z,8.18
2023-05-22T19:28:24.005Z,8.16
2023-05-22T19:30:50.924Z,8.02
2023-05-22T19:33:17.787Z,8.03
2023-05-22T19:35:44.607Z,8.89
2023-05-22T19:38:11.252Z,21.45
2023-05-22T19:40:37.915Z,23.68
2023-05-22T19:43:04.707Z,24.56
2023-05-22T19:45:31.280Z,24.89
2023-05-22T19:47:57.890Z,25.05
2023-05-22T19:50:24.488Z,24.97
2023-05-22T19:52:51.220Z,24.86
2023-05-22T19:55:17.778Z,24.95
2023-05-22T19:57:44.655Z,24.93
2023-05-22T20:00:11.808Z,25.00
2023-05-22T20:02:38.753Z,25.08
2023-05-22T20:05:09.450Z,24.99
2023-05-22T20:07:36.597Z,24.99
2023-05-22T20:10:06.594Z,24.89
2023-05-22T20:12:33.505Z,24.88
2023-05-22T20:15:00.139Z,24.85
2023-05-22T20:17:26.770Z,24.92
2023-05-22T20:19:54.146Z,25.09
2023-05-22T20:22:20.682Z,25.39
2023-05-22T20:24:47.454Z,25.66
2023-05-22T20:27:14.034Z,25.65
2023-05-22T20:29:40.687Z,25.56
2023-05-22T20:32:07.371Z,25.70
2023-05-22T20:34:33.936Z,25.71
2023-05-22T20:37:00.565Z,25.66
2023-05-22T20:39:27.105Z,25.56
2023-05-22T20:41:54.459Z,25.54
2023-05-22T20:44:24.681Z,25.57
2023-05-22T20:46:53.267Z,25.52
2023-05-22T20:49:21.067Z,25.61
2023-05-22T20:51:48.012Z,25.54
2023-05-22T20:54:14.643Z,25.68
2023-05-22T20:56:41.144Z,25.81
2023-05-22T20:59:07.636Z,25.84
2023-05-22T21:01:34.260Z,25.82
2023-05-22T21:04:00.957Z,25.85
2023-05-22T21:06:29.928Z,25.91
2023-05-22T21:09:01.670Z,25.76
2023-05-22T21:11:28.583Z,25.67
2023-05-22T21:13:55.298Z,25.71
2023-05-22T21:16:21.965Z,25.80
2023-05-22T21:18:48.573Z,25.65
2023-05-22T21:21:18.033Z,25.65
2023-05-22T21:23:44.548Z,25.55
2023-05-22T21:26:11.235Z,25.59
2023-05-22T21:28:38.041Z,25.64
2023-05-22T21:31:04.658Z,25.62
2023-05-22T21:33:31.301Z,25.82
2023-05-22T21:35:57.912Z,26.04
2023-05-22T21:38:24.410Z,26.07
2023-05-22T21:40:51.057Z,26.05
2023-05-22T21:43:17.571Z,26.07
2023-05-22T21:45:44.139Z,26.05
2023-05-22T21:48:11.484Z,26.03
2023-05-22T21:50:38.372Z,26.03
2023-05-22T21:53:05.169Z,26.11
2023-05-22T21:55:31.866Z,26.13
2023-05-22T21:57:58.467Z,26.15
2023-05-22T22:03:23.563Z,25.87
2023-05-22T22:05:50.233Z,25.79
2023-05-22T22:08:17.001Z,25.80
2023-05-22T22:10:43.750Z,25.79
2023-05-22T22:13:10.376Z,25.82
2023-05-22T22:15:37.326Z,25.86
2023-05-22T22:18:05.223Z,25.95
2023-05-22T22:20:43.582Z,25.99
2023-05-22T22:23:11.835Z,26.05
2023-05-22T22:25:39.391Z,26.08
2023-05-22T22:28:06.246Z,26.16
2023-05-22T22:30:32.845Z,26.16
2023-05-22T22:32:59.572Z,26.07
2023-05-22T22:35:26.468Z,26.08
2023-05-22T22:37:53.021Z,26.01
2023-05-22T22:40:19.608Z,25.89
2023-05-22T22:42:46.125Z,25.74
2023-05-22T22:45:12.719Z,25.68
2023-05-22T22:47:39.451Z,25.66
2023-05-22T22:50:06.334Z,25.66
2023-05-22T22:52:32.930Z,25.81
2023-05-22T22:54:59.687Z,25.84
2023-05-22T22:57:26.410Z,25.98
2023-05-22T22:59:52.962Z,26.03
2023-05-22T23:02:19.552Z,25.95
2023-05-22T23:04:46.290Z,25.91
2023-05-22T23:07:15.729Z,26.01
2023-05-22T23:09:42.304Z,25.97
2023-05-22T23:12:09.864Z,26.04
2023-05-22T23:14:37.759Z,26.09
2023-05-22T23:17:04.560Z,26.06
2023-05-22T23:19:31.277Z,26.03
2023-05-22T23:21:57.861Z,26.04
2023-05-22T23:24:24.416Z,26.05
2023-05-22T23:26:52.883Z,25.98
2023-05-22T23:29:19.470Z,25.76
2023-05-22T23:31:47.586Z,25.84
2023-05-22T23:34:14.303Z,25.84
2023-05-22T23:36:41.135Z,25.80
2023-05-22T23:39:07.811Z,25.73
2023-05-22T23:41:35.605Z,25.82
2023-05-22T23:44:02.316Z,25.93
2023-05-22T23:46:29.639Z,26.10
2023-05-22T23:48:56.450Z,26.05
2023-05-22T23:51:23.091Z,26.02
2023-05-22T23:53:49.682Z,26.00
2023-05-22T23:56:17.115Z,25.92
2023-05-22T23:58:43.727Z,25.94
